• Join FlightAware (Why Join?)
  • Login
  • US Flag 
02:48PM EDT


 

Airport Tracker/Info


-or-


 

Live Flight TrackerFlight Track Log ✈ FIN666 ✈ 17-Mar-2014 ✈ EKCH / CPH - EFHK / HEL

Flight Track Log - Related Links

Times and Time Zones

All times are in EDT time to prevent confusion due to time zone crossing. See the FIN666 flight status page for this flight to view local times or setup timezone preferences in your user account.

Time Position Orientation Groundspeed Altitude Reporting Facility
EDT Latitude Longitude Course Direction KTS MPH feet Rate Location/Type
08:23AM 55.9164 13.2747 49° Northeast  Level Estimated
08:24AM 55.9905 13.4309 50° Northeast  Level Estimated
08:25AM 56.0644 13.5877 50° Northeast  Level Estimated
08:26AM 56.1381 13.7451 50° Northeast  Level Estimated
08:27AM 56.2117 13.9031 50° Northeast  Level Estimated
08:28AM 56.2850 14.0617 50° Northeast  Level Estimated
08:29AM 56.3581 14.2208 50° Northeast  Level Estimated
08:30AM 56.4310 14.3807 50° Northeast  Level Estimated
08:31AM 56.5037 14.5411 51° Northeast  Level Estimated
08:32AM 56.5762 14.7021 51° Northeast  Level Estimated
08:33AM 56.6485 14.8638 51° Northeast  Level Estimated
08:34AM 56.7206 15.0260 51° Northeast  Level Estimated
08:35AM 56.7925 15.1889 51° Northeast  Level Estimated
08:36AM 56.8641 15.3525 51° Northeast  Level Estimated
08:37AM 56.9356 15.5166 51° Northeast  Level Estimated
08:38AM 57.0068 15.6814 52° Northeast  Level Estimated
08:39AM 57.0778 15.8468 52° Northeast  Level Estimated
08:40AM 57.1486 16.0129 52° Northeast  Level Estimated
08:41AM 57.2192 16.1795 52° Northeast  Level Estimated
08:42AM 57.2895 16.3468 52° Northeast  Level Estimated
08:43AM 57.3606 16.5173 52° Northeast  Level Estimated
08:44AM 57.4315 16.6883 52° Northeast  Level Estimated
08:45AM 57.5022 16.8600 53° Northeast  Level Estimated
08:46AM 57.5727 17.0324 53° Northeast  Level Estimated
08:47AM 57.6429 17.2055 53° Northeast  Level Estimated
08:48AM 57.7128 17.3792 53° Northeast  Level Estimated
08:49AM 57.7826 17.5536 53° Northeast  Level Estimated
08:50AM 57.8521 17.7286 53° Northeast  Level Estimated
08:51AM 57.9213 17.9044 53° Northeast  Level Estimated
08:52AM 57.9903 18.0808 54° Northeast  Level Estimated
08:53AM 58.0591 18.2579 54° Northeast  Level Estimated
08:54AM 58.1276 18.4357 54° Northeast  Level Estimated
08:55AM 58.1959 18.6142 54° Northeast  Level Estimated
08:56AM 58.2639 18.7933 54° Northeast  Level Estimated
08:57AM 58.3316 18.9732 54° Northeast  Level Estimated
08:58AM 58.3991 19.1537 54° Northeast  Level Estimated
08:59AM 58.4664 19.3349 55° Northeast  Level Estimated
09:00AM 58.5334 19.5168 55° Northeast  Level Estimated
09:01AM 58.6001 19.6994 55° Northeast  Level Estimated
09:02AM 58.6666 19.8827 55° Northeast  Level Estimated
09:03AM 58.7328 20.0667 55° Northeast  Level Estimated
09:04AM 58.7988 20.2514 55° Northeast  Level Estimated
09:05AM 58.8645 20.4368 56° Northeast  Level Estimated
09:06AM 58.9299 20.6230 56° Northeast  Level Estimated
09:07AM 58.9951 20.8098 56° Northeast  Level Estimated
09:08AM 59.0600 20.9973 56° Northeast  Level Estimated
09:09AM 59.1246 21.1855 56° Northeast  Level Estimated
09:10AM 59.1889 21.3745 56° Northeast  Level Estimated
09:11AM 59.2530 21.5641 56° Northeast  Level Estimated
09:12AM 59.3168 21.7545 57° Northeast  Level Estimated
09:13AM 59.3803 21.9456 57° Northeast  Level Estimated
09:14AM 59.4435 22.1374 57° Northeast  Level Estimated
09:15AM 59.5038 22.3218 57° Northeast  Level Estimated
09:16AM 59.5639 22.5070 57° Northeast  Level Estimated
09:17AM 59.6237 22.6928 57° Northeast  Level Estimated
09:18AM 59.6833 22.8792 58° Northeast  Level Estimated
09:19AM 59.7425 23.0664 58° Northeast  Level Estimated
09:20AM 59.8015 23.2542 58° Northeast  Level Estimated
09:21AM 59.8603 23.4426 58° Northeast  Level Estimated
09:22AM 59.9188 23.6317 58° Northeast  Level Estimated
09:23AM 59.9770 23.8215 58° Northeast  Level Estimated
09:24AM 60.0349 24.0119 59° Northeast  Level Estimated
09:25AM 60.0925 24.2031 59° Northeast  Level Estimated
09:26AM 60.1499 24.3948 59° Northeast  Level Estimated
09:27AM 60.2070 24.5873 59° Northeast  Level Estimated
09:28AM 60.2638 24.7804 59° Northeast  Level Estimated
09:29AM 60.3172 24.9633 59° Northeast  Level Estimated
09:30AM 60.3172 24.9633 North  Level Estimated
09:31AM 60.3172 24.9633 North  Level Estimated
09:32AM 60.3172 24.9633 North  Level Estimated
09:33AM 60.3172 24.9633 North  Level Estimated
09:34AM 60.3172 24.9633 North  Level Estimated
09:35AM 60.3172 24.9633 North  Level Estimated
09:36AM 60.3172 24.9633 North  Level Estimated
09:37AM 60.3172 24.9633 North  Level Estimated
09:38AM 60.3172 24.9633 North  Level Estimated
09:39AM 60.3172 24.9633 North  Level Estimated
09:40AM 60.3172 24.9633 North  Level Estimated
09:41AM 60.3172 24.9633 North  Level Estimated
09:42AM 60.3172 24.9633 North  Level Estimated
09:43AM 60.3172 24.9633 North  Level Estimated